createdAt,value
2019-01-13T00:01:06.244Z,98244.45
2019-01-13T00:03:33.159Z,98235.75
2019-01-13T00:05:59.826Z,98234.86
2019-01-13T00:08:26.826Z,98245.36
2019-01-13T00:10:53.741Z,98241.88
2019-01-13T00:13:20.988Z,98241.63
2019-01-13T00:15:48.012Z,98244.45
2019-01-13T00:18:15.709Z,98241.95
2019-01-13T00:20:43.393Z,98233.94
2019-01-13T00:23:10.990Z,98242.38
2019-01-13T00:25:38.083Z,98233.77
2019-01-13T00:28:06.974Z,98239.41
2019-01-13T00:30:34.002Z,98235.50
2019-01-13T00:33:00.983Z,98231.86
2019-01-13T00:35:28.061Z,98233.36
2019-01-13T00:37:54.982Z,98240.41
2019-01-13T00:40:22.987Z,98240.63
2019-01-13T00:42:50.846Z,98242.45
2019-01-13T00:45:18.902Z,98239.48
2019-01-13T00:47:45.929Z,98243.28
2019-01-13T00:50:13.679Z,98244.20
2019-01-13T00:52:40.711Z,98249.41
2019-01-13T00:55:07.736Z,98241.30
2019-01-13T00:57:37.190Z,98244.44
2019-01-13T01:00:04.746Z,98246.93
2019-01-13T01:02:31.812Z,98244.27
2019-01-13T01:04:59.881Z,98247.08
2019-01-13T01:07:27.209Z,98245.24
2019-01-13T01:09:54.355Z,98242.59
2019-01-13T01:12:22.256Z,98241.94
2019-01-13T01:14:50.977Z,98242.94
2019-01-13T01:17:17.560Z,98236.23
2019-01-13T01:19:45.455Z,98241.20
2019-01-13T01:22:12.434Z,98239.30
2019-01-13T01:24:39.563Z,98231.17
2019-01-13T01:27:06.510Z,98228.52
2019-01-13T01:29:34.246Z,98234.22
2019-01-13T01:32:02.329Z,98229.10
2019-01-13T01:34:29.384Z,98230.83
2019-01-13T01:36:57.024Z,98232.82
2019-01-13T01:39:24.148Z,98229.41
2019-01-13T01:41:52.169Z,98230.16
2019-01-13T01:44:19.919Z,98222.05
2019-01-13T01:46:47.886Z,98223.02
2019-01-13T01:49:15.027Z,98217.48
2019-01-13T01:51:42.031Z,98218.37
2019-01-13T01:54:09.784Z,98217.55
2019-01-13T01:56:36.793Z,98216.80
2019-01-13T01:59:03.927Z,98214.97
2019-01-13T02:01:31.073Z,98217.80
2019-01-13T02:03:58.111Z,98216.70
2019-01-13T02:06:25.229Z,98211.16
2019-01-13T02:08:53.033Z,98211.48
2019-01-13T02:11:20.153Z,98210.48
2019-01-13T02:13:47.459Z,98208.63
2019-01-13T02:16:14.570Z,98209.05
2019-01-13T02:18:41.618Z,98205.95
2019-01-13T02:21:08.590Z,98205.11
2019-01-13T02:23:36.310Z,98203.45
2019-01-13T02:26:03.304Z,98202.63
2019-01-13T02:28:31.207Z,98200.91
2019-01-13T02:31:00.104Z,98195.31
2019-01-13T02:33:27.177Z,98203.16
2019-01-13T02:35:55.380Z,98198.02
2019-01-13T02:38:22.391Z,98189.48
2019-01-13T02:40:50.425Z,98193.60
2019-01-13T02:43:18.253Z,98190.92
2019-01-13T02:45:44.900Z,98186.70
2019-01-13T02:48:11.956Z,98184.30
2019-01-13T02:50:39.115Z,98184.75
2019-01-13T02:53:07.024Z,98180.45
2019-01-13T02:55:35.356Z,98178.91
2019-01-13T02:58:03.109Z,98174.13
2019-01-13T03:00:30.420Z,98183.67
2019-01-13T03:02:58.335Z,98181.36
2019-01-13T03:05:25.351Z,98176.46
2019-01-13T03:07:52.422Z,98176.66
2019-01-13T03:10:19.416Z,98170.20
2019-01-13T03:12:47.345Z,98174.84
2019-01-13T03:15:19.370Z,98177.16
2019-01-13T03:17:44.624Z,98176.93
2019-01-13T03:20:11.823Z,98173.79
2019-01-13T03:22:39.873Z,98169.09
2019-01-13T03:25:07.822Z,98166.94
2019-01-13T03:27:35.693Z,98174.88
2019-01-13T03:30:02.823Z,98164.59
2019-01-13T03:32:30.093Z,98165.16
2019-01-13T03:34:57.136Z,98167.77
2019-01-13T03:37:24.171Z,98161.05
2019-01-13T03:39:51.498Z,98157.02
2019-01-13T03:42:19.439Z,98156.66
2019-01-13T03:44:47.192Z,98162.97
2019-01-13T03:47:14.229Z,98161.91
2019-01-13T03:49:42.088Z,98160.56
2019-01-13T03:52:10.216Z,98168.61
2019-01-13T03:54:38.263Z,98157.52
2019-01-13T03:57:05.654Z,98159.27
2019-01-13T03:59:33.529Z,98159.11
2019-01-13T04:02:01.844Z,98151.56
2019-01-13T04:04:29.438Z,98158.42
2019-01-13T04:06:56.616Z,98154.77
2019-01-13T04:09:24.651Z,98157.27
2019-01-13T04:11:51.604Z,98158.95
2019-01-13T04:14:18.586Z,98157.31
2019-01-13T04:16:45.697Z,98162.61
2019-01-13T04:19:13.634Z,98160.95
2019-01-13T04:21:40.650Z,98164.27
2019-01-13T04:24:08.385Z,98154.42
2019-01-13T04:26:35.539Z,98166.84
2019-01-13T04:29:03.609Z,98161.66
2019-01-13T04:31:30.805Z,98169.42
2019-01-13T04:33:58.771Z,98159.34
2019-01-13T04:36:25.582Z,98157.34
2019-01-13T04:38:53.374Z,98154.78
2019-01-13T04:41:21.298Z,98157.61
2019-01-13T04:43:48.403Z,98155.94
2019-01-13T04:46:15.506Z,98151.96
2019-01-13T04:48:43.259Z,98145.06
2019-01-13T04:51:11.358Z,98145.95
2019-01-13T04:53:38.468Z,98145.56
2019-01-13T04:56:05.478Z,98149.12
2019-01-13T04:58:33.286Z,98145.08
2019-01-13T05:01:00.352Z,98149.87
2019-01-13T05:03:27.322Z,98146.08
2019-01-13T05:05:54.367Z,98146.25
2019-01-13T05:08:21.433Z,98139.22
2019-01-13T05:10:48.644Z,98140.53
2019-01-13T05:13:15.596Z,98137.05
2019-01-13T05:15:42.646Z,98139.73
2019-01-13T05:18:09.900Z,98134.05
2019-01-13T05:20:36.966Z,98138.08
2019-01-13T05:23:03.974Z,98130.98
2019-01-13T05:25:31.849Z,98134.27
2019-01-13T05:27:59.003Z,98132.45
2019-01-13T05:30:27.280Z,98123.42
2019-01-13T05:32:54.170Z,98128.59
2019-01-13T05:35:22.173Z,98125.02
2019-01-13T05:37:49.089Z,98127.44
2019-01-13T05:40:16.902Z,98120.09
2019-01-13T05:42:44.546Z,98114.92
2019-01-13T05:45:12.153Z,98123.55
2019-01-13T05:47:39.053Z,98120.07
2019-01-13T05:50:06.698Z,98120.50
2019-01-13T05:52:33.607Z,98131.11
2019-01-13T05:55:01.448Z,98114.12
2019-01-13T05:57:28.354Z,98116.69
2019-01-13T05:59:55.489Z,98111.70
2019-01-13T06:02:23.177Z,98116.48
2019-01-13T06:04:50.192Z,98116.50
2019-01-13T06:07:17.196Z,98112.44
2019-01-13T06:09:44.482Z,98112.92
2019-01-13T06:12:12.191Z,98120.78
2019-01-13T06:14:39.154Z,98112.09
2019-01-13T06:17:05.858Z,98117.17
2019-01-13T06:19:32.981Z,98114.26
2019-01-13T06:21:59.971Z,98114.91
2019-01-13T06:24:27.962Z,98114.00
2019-01-13T06:26:55.627Z,98115.28
2019-01-13T06:29:23.623Z,98115.94
2019-01-13T06:31:56.270Z,98114.30
2019-01-13T06:34:19.922Z,98122.95
2019-01-13T06:36:46.984Z,98119.51
2019-01-13T06:39:13.973Z,98118.23
2019-01-13T06:41:42.104Z,98126.17
2019-01-13T06:44:09.859Z,98122.41
2019-01-13T06:46:39.219Z,98118.53
2019-01-13T06:49:06.192Z,98113.81
2019-01-13T06:51:33.372Z,98113.14
2019-01-13T06:53:59.941Z,98122.16
2019-01-13T06:56:26.986Z,98112.02
2019-01-13T06:58:54.810Z,98119.20
2019-01-13T07:01:22.734Z,98109.11
2019-01-13T07:03:49.925Z,98115.49
2019-01-13T07:06:17.731Z,98111.85
2019-01-13T07:08:45.139Z,98119.39
2019-01-13T07:11:12.215Z,98122.54
2019-01-13T07:13:38.944Z,98114.24
2019-01-13T07:16:07.336Z,98115.91
2019-01-13T07:18:36.115Z,98115.00
2019-01-13T07:21:03.115Z,98115.33
2019-01-13T07:23:29.743Z,98120.36
2019-01-13T07:25:58.492Z,98113.73
2019-01-13T07:28:26.184Z,98108.81
2019-01-13T07:30:53.130Z,98107.49
2019-01-13T07:33:20.899Z,98111.06
2019-01-13T07:35:48.014Z,98118.32
2019-01-13T07:38:14.701Z,98110.41
2019-01-13T07:40:41.848Z,98111.30
2019-01-13T07:43:08.727Z,98117.66
2019-01-13T07:45:35.774Z,98112.13
2019-01-13T07:48:02.975Z,98109.17
2019-01-13T07:50:48.097Z,98117.34
2019-01-13T07:53:15.278Z,98111.48
2019-01-13T07:55:41.996Z,98102.59
2019-01-13T07:58:09.115Z,98101.50
2019-01-13T08:00:38.365Z,98106.70
2019-01-13T08:03:06.227Z,98105.64
2019-01-13T08:05:33.275Z,98103.90
2019-01-13T08:08:01.032Z,98109.09
2019-01-13T08:10:28.108Z,98110.92
2019-01-13T08:12:55.214Z,98104.81
2019-01-13T08:15:22.371Z,98102.83
2019-01-13T08:17:50.039Z,98107.98
2019-01-13T08:20:17.225Z,98100.55
2019-01-13T08:22:44.623Z,98103.60
2019-01-13T08:25:11.649Z,98090.77
2019-01-13T08:27:38.754Z,98088.22
2019-01-13T08:30:06.578Z,98081.84
2019-01-13T08:32:34.373Z,98080.75
2019-01-13T08:35:02.140Z,98079.30
2019-01-13T08:37:29.705Z,98081.40
2019-01-13T08:39:56.752Z,98072.45
2019-01-13T08:42:24.523Z,98075.91
2019-01-13T08:44:52.327Z,98074.38
2019-01-13T08:47:19.466Z,98070.34
2019-01-13T08:49:47.368Z,98064.51
2019-01-13T08:52:15.050Z,98063.06
2019-01-13T08:54:42.724Z,98060.82
2019-01-13T08:57:10.528Z,98058.49
2019-01-13T08:59:38.290Z,98049.11
2019-01-13T09:02:06.109Z,98051.02
2019-01-13T09:04:33.083Z,98049.00
2019-01-13T09:07:00.260Z,98039.25
2019-01-13T09:09:27.384Z,98042.13
2019-01-13T09:11:54.452Z,98040.41
2019-01-13T09:14:21.608Z,98039.31
2019-01-13T09:16:48.258Z,98037.75
2019-01-13T09:19:15.372Z,98026.75
2019-01-13T09:21:42.099Z,98030.47
2019-01-13T09:24:09.929Z,98030.17
2019-01-13T09:26:37.009Z,98027.98
2019-01-13T09:29:04.184Z,98024.83
2019-01-13T09:31:31.440Z,98017.94
2019-01-13T09:33:58.588Z,98014.97
2019-01-13T09:36:25.741Z,98011.63
2019-01-13T09:38:52.867Z,98007.90
2019-01-13T09:41:20.679Z,98006.34
2019-01-13T09:43:48.273Z,97995.76
2019-01-13T09:46:15.428Z,97995.80
2019-01-13T09:48:42.089Z,97984.72
2019-01-13T09:51:09.996Z,97984.05
2019-01-13T09:53:36.757Z,97981.35
2019-01-13T09:56:03.489Z,97978.48
2019-01-13T09:58:30.195Z,97971.29
2019-01-13T10:00:57.346Z,97965.08
2019-01-13T10:03:24.452Z,97962.88
2019-01-13T10:05:51.160Z,97959.90
2019-01-13T10:08:19.214Z,97956.40
2019-01-13T10:10:46.252Z,97960.45
2019-01-13T10:13:13.333Z,97950.74
2019-01-13T10:15:40.589Z,97947.45
2019-01-13T10:18:07.450Z,97939.23
2019-01-13T10:20:36.232Z,97930.62
2019-01-13T10:23:03.414Z,97922.39
2019-01-13T10:25:30.459Z,97919.91
2019-01-13T10:27:58.261Z,97921.32
2019-01-13T10:30:25.361Z,97915.80
2019-01-13T10:32:54.614Z,97904.34
2019-01-13T10:35:21.014Z,97899.75
2019-01-13T10:37:48.818Z,97898.66
2019-01-13T10:40:15.946Z,97901.28
2019-01-13T10:42:42.955Z,97899.07
2019-01-13T10:45:10.132Z,97893.13
2019-01-13T10:47:37.272Z,97890.76
2019-01-13T10:50:04.342Z,97888.68
2019-01-13T10:52:31.787Z,97888.48
2019-01-13T10:54:59.123Z,97889.37
2019-01-13T10:57:26.528Z,97879.70
2019-01-13T10:59:53.667Z,97872.20
2019-01-13T11:02:21.436Z,97869.84
2019-01-13T11:04:48.634Z,97878.88
2019-01-13T11:07:15.361Z,97859.84
2019-01-13T11:09:42.457Z,97855.28
2019-01-13T11:12:09.524Z,97846.23
2019-01-13T11:14:36.376Z,97847.66
2019-01-13T11:17:03.050Z,97841.26
2019-01-13T11:19:30.118Z,97838.46
2019-01-13T11:21:57.923Z,97826.33
2019-01-13T11:24:25.037Z,97824.51
2019-01-13T11:26:52.152Z,97809.95
2019-01-13T11:29:19.242Z,97814.84
2019-01-13T11:31:46.367Z,97809.69
2019-01-13T11:34:13.545Z,97802.25
2019-01-13T11:36:40.455Z,97811.17
2019-01-13T11:39:07.143Z,97796.06
2019-01-13T11:41:33.937Z,97795.59
2019-01-13T11:44:00.590Z,97787.34
2019-01-13T11:46:27.784Z,97777.95
2019-01-13T11:48:54.918Z,97777.36
2019-01-13T11:51:21.576Z,97776.77
2019-01-13T11:53:48.719Z,97773.66
2019-01-13T11:56:16.744Z,97761.72
2019-01-13T11:58:43.827Z,97759.15
2019-01-13T12:01:10.952Z,97762.69
2019-01-13T12:03:38.768Z,97745.61
2019-01-13T12:06:05.496Z,97739.14
2019-01-13T12:08:32.419Z,97737.07
2019-01-13T12:10:59.463Z,97732.66
2019-01-13T12:13:26.641Z,97726.30
2019-01-13T12:15:53.386Z,97723.00
2019-01-13T12:18:20.119Z,97718.77
2019-01-13T12:20:47.911Z,97710.60
2019-01-13T12:23:14.654Z,97701.98
2019-01-13T12:25:42.345Z,97695.59
2019-01-13T12:28:09.130Z,97691.73
2019-01-13T12:30:36.400Z,97692.94
2019-01-13T12:33:03.082Z,97677.98
2019-01-13T12:35:30.794Z,97671.10
2019-01-13T12:37:59.283Z,97676.44
2019-01-13T12:40:28.316Z,97665.36
2019-01-13T12:42:56.828Z,97659.84
2019-01-13T12:45:24.733Z,97646.82
2019-01-13T12:47:51.898Z,97639.18
2019-01-13T12:50:18.557Z,97649.17
2019-01-13T12:52:46.474Z,97636.11
2019-01-13T12:55:13.143Z,97634.44
2019-01-13T12:57:40.742Z,97629.13
2019-01-13T13:00:08.048Z,97622.47
2019-01-13T13:02:35.351Z,97626.95
2019-01-13T13:05:02.387Z,97620.52
2019-01-13T13:07:30.059Z,97609.58
2019-01-13T13:09:57.353Z,97607.50
2019-01-13T13:12:26.519Z,97598.55
2019-01-13T13:14:53.619Z,97593.94
2019-01-13T13:17:21.492Z,97593.35
2019-01-13T13:19:49.530Z,97579.89
2019-01-13T13:22:16.262Z,97569.71
2019-01-13T13:24:43.410Z,97562.89
2019-01-13T13:27:10.685Z,97560.96
2019-01-13T13:29:37.671Z,97552.16
2019-01-13T13:32:05.659Z,97545.67
2019-01-13T13:34:37.115Z,97541.35
2019-01-13T13:37:04.167Z,97536.30
2019-01-13T13:39:30.856Z,97540.31
2019-01-13T13:41:57.957Z,97526.22
2019-01-13T13:44:24.858Z,97531.32
2019-01-13T13:46:51.932Z,97516.52
2019-01-13T13:49:19.631Z,97510.11
2019-01-13T13:51:46.741Z,97506.53
2019-01-13T13:54:14.691Z,97505.98
2019-01-13T13:56:41.822Z,97507.25
2019-01-13T13:59:11.258Z,97509.45
2019-01-13T14:01:38.341Z,97495.20
2019-01-13T14:04:07.480Z,97497.02
2019-01-13T14:06:36.324Z,97491.34
2019-01-13T14:09:04.362Z,97492.34
2019-01-13T14:11:31.509Z,97487.88
2019-01-13T14:13:59.362Z,97478.69
2019-01-13T14:16:26.032Z,97480.47
2019-01-13T14:18:53.306Z,97465.79
2019-01-13T14:21:20.392Z,97456.97
2019-01-13T14:23:47.492Z,97451.58
2019-01-13T14:26:14.250Z,97452.91
2019-01-13T14:28:41.273Z,97438.98
2019-01-13T14:31:08.064Z,97449.09
2019-01-13T14:33:35.182Z,97434.94
2019-01-13T14:36:01.895Z,97439.56
2019-01-13T14:38:29.086Z,97431.91
2019-01-13T14:40:56.815Z,97428.01
2019-01-13T14:43:23.503Z,97420.38
2019-01-13T14:45:50.658Z,97409.05
2019-01-13T14:48:17.338Z,97405.18
2019-01-13T14:50:44.416Z,97403.38
2019-01-13T14:53:11.216Z,97398.96
2019-01-13T14:55:37.934Z,97388.56
2019-01-13T14:58:06.107Z,97387.16
2019-01-13T15:00:33.307Z,97381.69
2019-01-13T15:03:00.450Z,97366.81
2019-01-13T15:05:27.468Z,97380.91
2019-01-13T15:07:54.147Z,97357.91
2019-01-13T15:10:20.808Z,97352.97
2019-01-13T15:12:47.531Z,97348.87
2019-01-13T15:15:14.676Z,97345.20
2019-01-13T15:17:41.622Z,97341.91
2019-01-13T15:20:12.183Z,97330.16
2019-01-13T15:22:39.298Z,97322.62
2019-01-13T15:25:06.378Z,97310.45
2019-01-13T15:27:33.369Z,97310.87
2019-01-13T15:30:00.493Z,97304.92
2019-01-13T15:32:27.495Z,97296.47
2019-01-13T15:34:54.448Z,97292.16
2019-01-13T15:37:21.599Z,97279.81
2019-01-13T15:39:48.279Z,97275.38
2019-01-13T15:42:16.210Z,97278.66
2019-01-13T15:44:43.208Z,97266.78
2019-01-13T15:47:10.299Z,97253.05
2019-01-13T15:49:37.300Z,97248.66
2019-01-13T15:52:04.331Z,97243.07
2019-01-13T15:54:32.307Z,97232.06
2019-01-13T15:56:59.407Z,97221.23
2019-01-13T15:59:26.505Z,97221.50
2019-01-13T16:01:53.919Z,97221.84
2019-01-13T16:04:21.012Z,97210.73
2019-01-13T16:06:48.785Z,97202.34
2019-01-13T16:09:16.531Z,97206.60
2019-01-13T16:11:43.762Z,97191.64
2019-01-13T16:14:11.677Z,97187.95
2019-01-13T16:16:40.542Z,97190.62
2019-01-13T16:19:07.278Z,97172.27
2019-01-13T16:21:34.883Z,97169.73
2019-01-13T16:24:01.963Z,97156.62
2019-01-13T16:26:29.565Z,97145.84
2019-01-13T16:28:56.940Z,97141.98
2019-01-13T16:31:24.027Z,97133.25
2019-01-13T16:33:51.094Z,97135.55
2019-01-13T16:36:18.549Z,97120.52
2019-01-13T16:38:45.758Z,97113.95
2019-01-13T16:41:13.434Z,97111.72
2019-01-13T16:43:40.521Z,97099.02
2019-01-13T16:46:07.571Z,97092.74
2019-01-13T16:48:34.656Z,97088.59
2019-01-13T16:51:01.452Z,97078.92
2019-01-13T16:53:28.584Z,97066.09
2019-01-13T16:55:56.212Z,97066.83
2019-01-13T16:58:32.370Z,97061.48
2019-01-13T17:00:59.419Z,97057.98
2019-01-13T17:03:26.128Z,97043.04
2019-01-13T17:05:53.188Z,97042.86
2019-01-13T17:08:20.848Z,97039.86
2019-01-13T17:10:48.228Z,97043.02
2019-01-13T17:13:15.257Z,97022.58
2019-01-13T17:15:43.604Z,97021.95
2019-01-13T17:18:11.570Z,97014.42
2019-01-13T17:20:39.213Z,97003.17
2019-01-13T17:23:06.417Z,96995.20
2019-01-13T17:25:33.677Z,96984.72
2019-01-13T17:28:01.379Z,97010.23
2019-01-13T17:30:28.424Z,96978.90
2019-01-13T17:32:56.313Z,96968.30
2019-01-13T17:35:23.003Z,96962.84
2019-01-13T17:37:50.954Z,96969.03
2019-01-13T17:40:18.137Z,96966.47
2019-01-13T17:42:45.955Z,96956.45
2019-01-13T17:45:12.984Z,96967.50
2019-01-13T17:47:39.673Z,96960.45
2019-01-13T17:50:07.590Z,96935.19
2019-01-13T17:52:34.628Z,96932.07
2019-01-13T17:55:01.853Z,96924.54
2019-01-13T17:57:28.973Z,96925.52
2019-01-13T17:59:56.025Z,96921.55
2019-01-13T18:02:22.965Z,96911.45
2019-01-13T18:04:50.655Z,96907.48
2019-01-13T18:07:18.555Z,96902.08
2019-01-13T18:09:45.724Z,96894.11
2019-01-13T18:12:12.951Z,96894.60
2019-01-13T18:14:39.816Z,96880.48
2019-01-13T18:17:06.897Z,96883.13
2019-01-13T18:19:33.945Z,96881.23
2019-01-13T18:22:01.877Z,96877.16
2019-01-13T18:24:28.969Z,96870.77
2019-01-13T18:26:55.690Z,96866.01
2019-01-13T18:29:22.901Z,96857.18
2019-01-13T18:31:49.541Z,96850.42
2019-01-13T18:34:18.374Z,96859.16
2019-01-13T18:36:46.335Z,96845.40
2019-01-13T18:39:13.683Z,96839.97
2019-01-13T18:41:40.409Z,96834.14
2019-01-13T18:44:07.505Z,96828.44
2019-01-13T18:46:35.335Z,96830.44
2019-01-13T18:49:03.227Z,96823.61
2019-01-13T18:51:30.405Z,96818.67
2019-01-13T18:53:57.449Z,96819.48
2019-01-13T18:56:24.129Z,96818.64
2019-01-13T18:58:50.825Z,96802.39
2019-01-13T19:01:17.854Z,96795.36
2019-01-13T19:03:44.829Z,96794.05
2019-01-13T19:06:11.527Z,96764.84
2019-01-13T19:08:39.544Z,96764.98
2019-01-13T19:11:08.607Z,96770.44
2019-01-13T19:13:35.615Z,96776.52
2019-01-13T19:16:02.874Z,96775.81
2019-01-13T19:18:30.241Z,96768.78
2019-01-13T19:20:57.324Z,96774.37
2019-01-13T19:23:26.551Z,96774.90
2019-01-13T19:25:53.758Z,96769.86
2019-01-13T19:28:21.499Z,96770.61
2019-01-13T19:30:48.968Z,96744.31
2019-01-13T19:33:15.933Z,96756.12
2019-01-13T19:35:42.976Z,96758.44
2019-01-13T19:38:10.690Z,96744.27
2019-01-13T19:40:37.749Z,96732.34
2019-01-13T19:43:05.295Z,96720.79
2019-01-13T19:45:33.998Z,96726.97
2019-01-13T19:48:01.638Z,96724.10
2019-01-13T19:50:29.487Z,96710.59
2019-01-13T19:52:56.548Z,96708.65
2019-01-13T19:55:24.188Z,96721.33
2019-01-13T19:57:53.398Z,96710.77
2019-01-13T20:00:20.909Z,96705.05
2019-01-13T20:02:48.179Z,96713.01
2019-01-13T20:05:14.905Z,96711.55
2019-01-13T20:07:41.911Z,96699.58
2019-01-13T20:10:11.431Z,96691.21
2019-01-13T20:12:40.556Z,96689.72
2019-01-13T20:15:08.094Z,96696.06
2019-01-13T20:17:35.522Z,96699.50
2019-01-13T20:20:02.610Z,96692.50
2019-01-13T20:22:31.737Z,96691.05
2019-01-13T20:24:58.704Z,96676.70
2019-01-13T20:27:25.464Z,96671.89
2019-01-13T20:29:52.725Z,96665.03
2019-01-13T20:32:19.676Z,96669.41
2019-01-13T20:34:46.394Z,96674.42
2019-01-13T20:37:14.123Z,96647.42
2019-01-13T20:39:41.267Z,96636.98
2019-01-13T20:42:08.444Z,96628.98
2019-01-13T20:44:36.086Z,96631.87
2019-01-13T20:47:03.209Z,96633.33
2019-01-13T20:49:30.897Z,96624.75
2019-01-13T20:51:58.458Z,96622.52
2019-01-13T20:54:25.122Z,96609.63
2019-01-13T20:56:52.234Z,96603.75
2019-01-13T20:59:19.267Z,96590.41
2019-01-13T21:01:45.881Z,96588.59
2019-01-13T21:04:13.290Z,96581.48
2019-01-13T21:06:40.334Z,96579.02
2019-01-13T21:09:07.375Z,96567.98
2019-01-13T21:11:34.522Z,96567.36
2019-01-13T21:14:01.217Z,96557.58
2019-01-13T21:16:28.302Z,96553.83
2019-01-13T21:18:55.150Z,96559.27
2019-01-13T21:21:22.178Z,96553.17
2019-01-13T21:23:49.887Z,96545.92
2019-01-13T21:26:16.529Z,96542.57
2019-01-13T21:28:43.234Z,96536.02
2019-01-13T21:31:10.349Z,96534.53
2019-01-13T21:33:38.070Z,96536.97
2019-01-13T21:36:05.085Z,96532.22
2019-01-13T21:38:32.806Z,96531.52
2019-01-13T21:40:59.849Z,96533.84
2019-01-13T21:43:27.603Z,96522.36
2019-01-13T21:45:54.600Z,96528.45
2019-01-13T21:48:21.809Z,96515.52
2019-01-13T21:50:49.448Z,96507.97
2019-01-13T21:53:16.545Z,96513.14
2019-01-13T21:55:44.108Z,96512.58
2019-01-13T21:58:11.172Z,96496.44
2019-01-13T22:00:37.815Z,96535.49
2019-01-13T22:03:04.662Z,96505.68
2019-01-13T22:05:32.377Z,96505.64
2019-01-13T22:07:59.419Z,96502.23
2019-01-13T22:10:28.022Z,96501.39
2019-01-13T22:12:54.786Z,96504.66
2019-01-13T22:15:22.492Z,96491.94
2019-01-13T22:17:49.625Z,96505.78
2019-01-13T22:20:16.672Z,96489.73
2019-01-13T22:22:44.537Z,96483.31
2019-01-13T22:25:11.440Z,96493.34
2019-01-13T22:27:38.592Z,96479.80
2019-01-13T22:30:05.844Z,96483.55
2019-01-13T22:32:32.916Z,96482.52
2019-01-13T22:35:00.024Z,96477.15
2019-01-13T22:37:27.066Z,96479.76
2019-01-13T22:39:54.749Z,96476.06
2019-01-13T22:42:21.642Z,96484.14
2019-01-13T22:44:49.446Z,96504.44
2019-01-13T22:47:16.568Z,96479.70
2019-01-13T22:49:44.403Z,96469.16
2019-01-13T22:52:11.506Z,96469.10
2019-01-13T22:54:39.481Z,96467.69
2019-01-13T22:57:06.462Z,96470.45
2019-01-13T22:59:33.512Z,96469.37
2019-01-13T23:02:00.685Z,96466.45
2019-01-13T23:04:27.715Z,96469.14
2019-01-13T23:06:54.296Z,96461.62
2019-01-13T23:09:21.299Z,96454.69
2019-01-13T23:11:49.008Z,96456.94
2019-01-13T23:14:16.011Z,96453.19
2019-01-13T23:16:43.481Z,96440.81
2019-01-13T23:19:11.168Z,96447.30
2019-01-13T23:21:38.227Z,96451.41
2019-01-13T23:24:05.326Z,96449.60
2019-01-13T23:26:31.959Z,96452.25
2019-01-13T23:28:59.061Z,96451.82
2019-01-13T23:31:26.216Z,96449.53
2019-01-13T23:33:53.979Z,96455.67
2019-01-13T23:36:21.123Z,96457.81
2019-01-13T23:38:48.995Z,96467.36
2019-01-13T23:41:16.537Z,96460.67
2019-01-13T23:43:43.599Z,96467.76
2019-01-13T23:46:11.565Z,96465.55
2019-01-13T23:48:39.225Z,96481.00
2019-01-13T23:51:06.110Z,96471.94
2019-01-13T23:53:32.761Z,96471.41
2019-01-13T23:55:59.403Z,96474.78
2019-01-13T23:58:26.782Z,96454.03
